Time;durP1;ratioP1;P1;durP2;ratioP2;P2;SDS_P1;SDS_P2;PMS_P1;PMS_P2;Temp;Humidity;BMP_temperature;BMP_pressure;BME280_temperature;BME280_humidity;BME280_pressure;Samples;Min_cycle;Max_cycle;Signal;HPM_P1;HPM_P2
2021/09/14 00:01:08;;;;;;;7.20;4.72;;;22.60;99.90;;;;;;5054222;28;20025;-81
2021/09/14 00:03:34;;;;;;;4.85;4.00;;;22.50;99.90;;;;;;5051386;28;20099;-81
2021/09/14 00:06:00;;;;;;;4.63;4.00;;;22.50;99.90;;;;;;5051641;28;20014;-81
2021/09/14 00:08:25;;;;;;;4.75;4.13;;;22.50;99.90;;;;;;5051705;28;20072;-81
2021/09/14 00:10:51;;;;;;;4.82;3.95;;;22.50;99.90;;;;;;5051574;28;20021;-81
2021/09/14 00:13:18;;;;;;;4.63;4.00;;;22.50;99.90;;;;;;5052595;28;20128;-81
2021/09/14 00:15:43;;;;;;;6.60;4.20;;;22.40;99.90;;;;;;5051889;28;20099;-81
2021/09/14 00:18:09;;;;;;;4.38;3.90;;;22.40;99.90;;;;;;5050926;28;20504;-81
2021/09/14 00:20:35;;;;;;;7.20;4.50;;;22.30;99.90;;;;;;5051610;28;20033;-81
2021/09/14 00:23:02;;;;;;;5.60;4.28;;;22.30;99.90;;;;;;5052142;28;20091;-82
2021/09/14 00:25:28;;;;;;;4.80;4.40;;;22.40;99.90;;;;;;5053494;28;20031;-81
2021/09/14 00:27:53;;;;;;;4.50;4.10;;;22.30;99.90;;;;;;5051750;28;20041;-81
2021/09/14 00:30:19;;;;;;;4.50;4.05;;;22.30;99.90;;;;;;5051263;28;20037;-81
2021/09/14 00:32:45;;;;;;;4.53;3.90;;;22.30;99.90;;;;;;5032917;28;20116;-81
2021/09/14 00:35:10;;;;;;;4.80;4.15;;;22.30;99.90;;;;;;5051416;28;20519;-81
2021/09/14 00:37:36;;;;;;;5.22;4.25;;;22.20;99.90;;;;;;5052802;28;20108;-81
2021/09/14 00:40:02;;;;;;;5.18;4.00;;;22.20;1.00;;;;;;5052499;28;20389;-81
2021/09/14 00:42:28;;;;;;;5.65;4.53;;;22.20;99.90;;;;;;5051355;28;20463;-80
2021/09/14 00:44:53;;;;;;;7.25;4.40;;;22.20;99.90;;;;;;5051335;28;20037;-81
2021/09/14 00:47:19;;;;;;;6.10;4.47;;;22.20;99.90;;;;;;5050477;28;20048;-81
2021/09/14 00:49:44;;;;;;;4.47;3.80;;;22.20;99.90;;;;;;5052295;28;20060;-81
2021/09/14 00:52:10;;;;;;;5.57;4.53;;;22.20;99.90;;;;;;5050561;28;20111;-81
2021/09/14 00:54:39;;;;;;;6.15;4.28;;;22.20;99.90;;;;;;5050811;28;20030;-81
2021/09/14 00:57:05;;;;;;;5.22;4.25;;;22.30;99.90;;;;;;5050881;28;20025;-81
2021/09/14 00:59:31;;;;;;;5.80;4.40;;;22.20;99.90;;;;;;5050817;28;20039;-80
2021/09/14 01:01:57;;;;;;;5.32;4.43;;;22.20;99.90;;;;;;5034715;28;20029;-81
2021/09/14 01:04:22;;;;;;;7.95;4.93;;;22.20;99.90;;;;;;5053122;28;20021;-81
2021/09/14 01:06:49;;;;;;;4.70;4.30;;;22.10;99.90;;;;;;5051025;28;20029;-81
2021/09/14 01:09:15;;;;;;;5.18;4.35;;;22.20;99.90;;;;;;5050943;28;20552;-81
2021/09/14 01:11:41;;;;;;;6.05;4.18;;;22.20;99.90;;;;;;5050307;28;20052;-81
2021/09/14 01:14:08;;;;;;;6.35;4.57;;;22.20;99.90;;;;;;5050237;28;20075;-81
2021/09/14 01:16:36;;;;;;;5.97;4.30;;;22.10;99.90;;;;;;5051820;28;20078;-81
2021/09/14 01:19:04;;;;;;;6.30;4.60;;;22.20;99.90;;;;;;5051668;28;20021;-81
2021/09/14 01:21:30;;;;;;;6.05;4.50;;;22.20;99.90;;;;;;5050216;28;20021;-81
2021/09/14 01:23:56;;;;;;;5.18;4.53;;;22.20;99.90;;;;;;5050238;28;20036;-81
2021/09/14 01:26:22;;;;;;;5.63;4.20;;;22.20;99.90;;;;;;5050285;28;20021;-81
2021/09/14 01:28:48;;;;;;;6.55;4.38;;;22.20;99.90;;;;;;5050203;28;20098;-81
2021/09/14 01:31:14;;;;;;;5.57;4.35;;;22.10;99.90;;;;;;5050548;28;20437;-81
2021/09/14 01:33:39;;;;;;;5.18;4.68;;;22.20;99.90;;;;;;5050542;28;20029;-81
2021/09/14 01:36:05;;;;;;;5.30;4.70;;;22.20;99.90;;;;;;5050282;28;20029;-81
2021/09/14 01:38:31;;;;;;;6.35;4.53;;;22.20;99.90;;;;;;5049881;28;20512;-81
2021/09/14 01:40:56;;;;;;;5.55;4.55;;;22.20;99.90;;;;;;5032146;28;20037;-81
2021/09/14 01:43:22;;;;;;;5.32;4.57;;;22.10;99.90;;;;;;5052575;28;20037;-81
2021/09/14 01:45:48;;;;;;;5.68;4.57;;;22.10;99.90;;;;;;5049492;28;20474;-81
2021/09/14 01:48:16;;;;;;;5.03;4.25;;;22.00;99.90;;;;;;5049836;28;20047;-81
2021/09/14 01:50:45;;;;;;;5.10;4.65;;;22.10;99.90;;;;;;5049709;28;20021;-81
2021/09/14 01:53:13;;;;;;;6.90;4.70;;;22.00;99.90;;;;;;5032983;28;20029;-81
2021/09/14 01:55:44;;;;;;;4.97;4.45;;;22.00;99.90;;;;;;5050495;28;20079;-81
2021/09/14 01:58:12;;;;;;;5.68;4.63;;;22.00;99.90;;;;;;5050042;28;20465;-81
2021/09/14 02:00:44;;;;;;;7.10;4.57;;;22.00;99.90;;;;;;5049656;28;20021;-81
2021/09/14 02:03:25;;;;;;;5.18;4.68;;;22.10;99.90;;;;;;5049836;28;20067;-81
2021/09/14 02:38:35;;;;;;;5.45;4.70;;;22.00;99.90;;;;;;5049975;28;20058;-81
2021/09/14 02:59:35;;;;;;;5.30;4.80;;;21.90;1.00;;;;;;5049213;28;20021;-81
2021/09/14 03:02:01;;;;;;;7.45;4.85;;;21.90;1.00;;;;;;5049015;28;20412;-80
2021/09/14 03:04:28;;;;;;;6.78;5.38;;;21.90;1.00;;;;;;5051724;28;20033;-81
2021/09/14 03:06:54;;;;;;;7.53;5.13;;;21.80;1.00;;;;;;5047771;28;20478;-81
2021/09/14 03:09:19;;;;;;;6.00;5.43;;;21.80;99.90;;;;;;5049439;28;20037;-81
2021/09/14 03:11:45;;;;;;;6.43;5.28;;;21.80;99.90;;;;;;5048817;28;20033;-81
2021/09/14 03:14:12;;;;;;;5.78;4.78;;;21.70;99.90;;;;;;5048833;28;20593;-81
2021/09/14 03:16:37;;;;;;;6.50;4.95;;;21.70;99.90;;;;;;5051194;28;20028;-81
2021/09/14 03:19:04;;;;;;;5.85;5.30;;;21.70;99.90;;;;;;5054486;28;20029;-81
2021/09/14 03:21:33;;;;;;;5.35;4.85;;;21.70;99.90;;;;;;5052765;28;20033;-80
2021/09/14 03:23:58;;;;;;;6.53;5.07;;;21.70;99.90;;;;;;5052631;28;20032;-81
2021/09/14 03:26:24;;;;;;;6.00;5.40;;;21.60;99.90;;;;;;5050827;28;20033;-81
2021/09/14 03:28:59;;;;;;;5.80;5.20;;;21.60;1.00;;;;;;5052939;28;20502;-81
2021/09/14 03:31:24;;;;;;;6.95;5.10;;;21.50;99.90;;;;;;5050831;28;20035;-81
2021/09/14 03:33:50;;;;;;;8.20;5.15;;;21.60;1.00;;;;;;5052521;28;20439;-81
2021/09/14 03:36:16;;;;;;;5.50;5.00;;;21.60;99.90;;;;;;5052295;28;20037;-81
2021/09/14 03:38:42;;;;;;;5.57;5.05;;;21.50;1.00;;;;;;5052577;28;20023;-81
2021/09/14 03:41:08;;;;;;;6.10;5.38;;;21.60;1.00;;;;;;5052511;28;20021;-81
2021/09/14 03:43:34;;;;;;;5.88;5.32;;;21.60;1.00;;;;;;5053638;28;20533;-81
2021/09/14 03:45:59;;;;;;;7.78;5.53;;;21.60;1.00;;;;;;5052947;28;20033;-81
2021/09/14 03:48:25;;;;;;;5.97;5.20;;;21.60;1.00;;;;;;5052005;28;20412;-81
2021/09/14 03:50:51;;;;;;;6.15;5.20;;;21.70;1.00;;;;;;5052336;28;20029;-81
2021/09/14 03:53:17;;;;;;;7.07;5.45;;;21.70;1.00;;;;;;5052404;28;20032;-81
2021/09/14 03:55:43;;;;;;;7.20;5.45;;;21.70;1.00;;;;;;5051966;28;20025;-81
2021/09/14 03:58:08;;;;;;;7.88;5.80;;;21.60;1.00;;;;;;5051922;28;20028;-80
2021/09/14 04:00:34;;;;;;;6.43;5.60;;;21.70;1.00;;;;;;5052252;28;20037;-80
2021/09/14 04:03:05;;;;;;;6.03;5.53;;;21.70;1.00;;;;;;5052026;28;20496;-81
2021/09/14 04:10:48;;;;;;;6.25;5.47;;;21.70;1.00;;;;;;4989002;28;20536;-81
2021/09/14 04:13:13;;;;;;;6.45;5.85;;;21.80;1.00;;;;;;4990624;28;20125;-81
2021/09/14 04:15:39;;;;;;;6.90;5.82;;;21.80;1.00;;;;;;4991255;28;20038;-80
2021/09/14 04:18:04;;;;;;;8.88;5.63;;;21.70;1.00;;;;;;4990379;28;20173;-81
2021/09/14 04:20:31;;;;;;;7.20;5.80;;;21.70;1.00;;;;;;4990631;28;20117;-81
2021/09/14 04:22:57;;;;;;;6.80;6.10;;;21.60;1.00;;;;;;4974887;28;20051;-81
2021/09/14 04:25:23;;;;;;;7.65;5.90;;;21.70;1.00;;;;;;4991938;28;20030;-81
2021/09/14 04:27:49;;;;;;;6.40;5.80;;;21.70;1.00;;;;;;4990209;28;20457;-81
2021/09/14 04:30:16;;;;;;;6.13;5.57;;;21.80;1.00;;;;;;4990393;28;20053;-81
2021/09/14 04:32:41;;;;;;;6.78;5.57;;;21.80;1.00;;;;;;4990661;28;20442;-81
2021/09/14 04:35:07;;;;;;;7.63;5.90;;;21.80;1.00;;;;;;4990153;28;20041;-81
2021/09/14 04:37:33;;;;;;;7.10;5.72;;;21.80;1.00;;;;;;4991464;28;20060;-81
2021/09/14 04:39:58;;;;;;;7.90;6.00;;;21.80;1.00;;;;;;4990073;28;20546;-81
2021/09/14 04:42:24;;;;;;;7.43;5.85;;;21.70;1.00;;;;;;4990041;28;20042;-81
2021/09/14 04:44:50;;;;;;;8.07;6.00;;;21.60;1.00;;;;;;4990421;28;20475;-81
2021/09/14 04:47:15;;;;;;;6.47;5.88;;;21.70;1.00;;;;;;5000379;28;20111;-81
2021/09/14 04:49:41;;;;;;;8.80;7.05;;;21.70;1.00;;;;;;5031476;28;20034;-81
2021/09/14 04:52:07;;;;;;;6.80;6.20;;;21.60;1.00;;;;;;5032717;28;20445;-80
2021/09/14 04:54:37;;;;;;;8.00;6.45;;;21.60;1.00;;;;;;5030915;28;20033;-82
2021/09/14 04:57:03;;;;;;;6.43;5.82;;;21.60;1.00;;;;;;5031339;28;20054;-81
2021/09/14 04:59:30;;;;;;;9.13;6.88;;;21.50;1.00;;;;;;5031570;28;20371;-80
2021/09/14 05:01:55;;;;;;;7.57;6.25;;;21.50;1.00;;;;;;5030751;28;20021;-81
2021/09/14 05:04:21;;;;;;;7.40;6.20;;;21.50;1.00;;;;;;5032843;28;20048;-81
2021/09/14 05:06:48;;;;;;;6.75;6.10;;;21.50;1.00;;;;;;5030555;28;20032;-80
2021/09/14 05:09:14;;;;;;;7.28;6.57;;;21.50;1.00;;;;;;5030958;28;20037;-81
2021/09/14 05:11:40;;;;;;;8.80;7.18;;;21.50;1.00;;;;;;5030247;28;20044;-81
2021/09/14 05:14:05;;;;;;;9.55;6.80;;;21.50;1.00;;;;;;5029642;28;20053;-81
2021/09/14 05:16:31;;;;;;;9.00;7.25;;;21.50;1.00;;;;;;5032178;28;20090;-81
2021/09/14 05:18:57;;;;;;;8.05;6.57;;;21.50;1.00;;;;;;5029644;28;20060;-81
2021/09/14 05:21:24;;;;;;;7.90;6.82;;;21.50;1.00;;;;;;5029912;28;20041;-81
2021/09/14 05:23:49;;;;;;;10.80;7.65;;;21.60;1.00;;;;;;5028948;28;20029;-82
2021/09/14 05:26:15;;;;;;;8.23;6.50;;;21.50;1.00;;;;;;5030890;28;20052;-81
2021/09/14 05:28:43;;;;;;;8.68;7.47;;;21.50;1.00;;;;;;5030875;28;20033;-81
2021/09/14 05:31:09;;;;;;;8.98;7.30;;;21.50;1.00;;;;;;5030074;28;20513;-81
2021/09/14 05:33:40;;;;;;;10.63;8.20;;;21.50;1.00;;;;;;5030072;28;20776;-81
2021/09/14 05:36:07;;;;;;;10.45;7.38;;;21.60;1.00;;;;;;5030226;28;20103;-81
2021/09/14 05:38:34;;;;;;;8.45;7.55;;;21.60;1.00;;;;;;5029445;28;20033;-80
2021/09/14 05:40:59;;;;;;;10.45;7.40;;;21.50;1.00;;;;;;5030195;28;20034;-81
2021/09/14 05:43:27;;;;;;;10.45;7.57;;;21.50;1.00;;;;;;5028637;28;20112;-81
2021/09/14 05:45:53;;;;;;;9.52;8.10;;;21.60;1.00;;;;;;5029884;28;20087;-81
2021/09/14 05:48:19;;;;;;;10.50;7.80;;;21.50;1.00;;;;;;5029956;28;20034;-81
2021/09/14 05:50:45;;;;;;;8.68;7.40;;;21.60;1.00;;;;;;5029485;28;20036;-81
2021/09/14 05:53:11;;;;;;;9.75;7.82;;;21.60;1.00;;;;;;5030356;28;20033;-81
2021/09/14 05:55:40;;;;;;;8.73;7.50;;;21.60;1.00;;;;;;5031306;28;20117;-82
2021/09/14 05:58:07;;;;;;;9.70;7.55;;;21.60;1.00;;;;;;5031342;28;20036;-80
2021/09/14 06:00:34;;;;;;;7.95;7.15;;;21.60;1.00;;;;;;5029809;28;20109;-81
2021/09/14 06:03:00;;;;;;;8.88;7.80;;;21.60;1.00;;;;;;5028212;28;20021;-81
2021/09/14 06:05:26;;;;;;;9.82;7.20;;;21.70;1.00;;;;;;5029734;28;20106;-81
2021/09/14 06:07:51;;;;;;;8.00;6.47;;;21.60;1.00;;;;;;5029997;28;20053;-81
2021/09/14 06:10:17;;;;;;;11.65;6.38;;;21.70;1.00;;;;;;5031728;28;20025;-81
2021/09/14 06:12:43;;;;;;;7.13;6.43;;;21.70;1.00;;;;;;5029736;28;20163;-81
2021/09/14 06:15:09;;;;;;;9.25;6.65;;;21.80;1.00;;;;;;5048883;28;20045;-81
2021/09/14 06:17:36;;;;;;;7.18;6.38;;;21.80;1.00;;;;;;5049296;28;20863;-81
2021/09/14 06:20:04;;;;;;;8.60;6.35;;;21.80;1.00;;;;;;5049398;28;20489;-80
2021/09/14 06:22:30;;;;;;;9.48;6.45;;;21.80;1.00;;;;;;5051853;28;20033;-80
2021/09/14 06:24:55;;;;;;;8.75;6.78;;;21.80;1.00;;;;;;5049745;28;20385;-81
2021/09/14 06:27:21;;;;;;;7.68;6.97;;;21.80;1.00;;;;;;5049277;28;20119;-81
2021/09/14 06:29:46;;;;;;;9.95;8.20;;;21.80;1.00;;;;;;5049692;28;20032;-81
2021/09/14 06:32:12;;;;;;;8.15;7.18;;;21.80;1.00;;;;;;5049506;28;20034;-82
2021/09/14 06:34:38;;;;;;;8.07;7.07;;;21.90;1.00;;;;;;5050121;28;20028;-81
2021/09/14 06:37:04;;;;;;;9.32;6.47;;;21.90;1.00;;;;;;5050556;28;20487;-81
2021/09/14 06:39:30;;;;;;;8.15;6.47;;;21.90;1.00;;;;;;5049522;28;20048;-81
2021/09/14 06:41:56;;;;;;;7.32;6.63;;;22.00;1.00;;;;;;5047406;28;20481;-81
2021/09/14 06:44:22;;;;;;;9.35;6.90;;;22.10;1.00;;;;;;5049305;28;20021;-79
2021/09/14 06:46:49;;;;;;;7.57;6.68;;;22.10;1.00;;;;;;5049410;28;20052;-78
2021/09/14 06:49:19;;;;;;;9.25;7.18;;;22.10;1.00;;;;;;5050799;28;20037;-79
2021/09/14 06:51:44;;;;;;;9.32;6.45;;;22.20;1.00;;;;;;5052767;28;20086;-77
2021/09/14 06:54:11;;;;;;;8.48;6.57;;;22.20;1.00;;;;;;5053287;28;20032;-79
2021/09/14 06:56:37;;;;;;;12.63;7.40;;;22.30;1.00;;;;;;5053197;28;20029;-79
2021/09/14 06:59:05;;;;;;;8.23;7.30;;;22.40;1.00;;;;;;5053774;28;20028;-79
2021/09/14 07:01:31;;;;;;;10.88;6.90;;;22.50;1.00;;;;;;5055098;28;20481;-79
2021/09/14 07:03:57;;;;;;;9.45;7.05;;;22.70;1.00;;;;;;5052823;28;20025;-78
2021/09/14 07:06:23;;;;;;;9.38;7.72;;;22.80;1.00;;;;;;5052590;28;20025;-79
2021/09/14 07:08:48;;;;;;;8.85;7.07;;;22.90;1.00;;;;;;5052720;28;20433;-80
2021/09/14 07:11:14;;;;;;;14.32;7.22;;;23.00;1.00;;;;;;5052886;28;20017;-79
2021/09/14 07:13:41;;;;;;;11.82;7.78;;;23.20;99.90;;;;;;5040268;28;20064;-80
2021/09/14 07:16:07;;;;;;;12.18;8.27;;;23.20;1.00;;;;;;5054955;28;20473;-80
2021/09/14 07:18:33;;;;;;;14.18;8.63;;;23.30;99.90;;;;;;5052698;28;20036;-80
2021/09/14 07:20:59;;;;;;;12.27;7.63;;;23.30;99.90;;;;;;5050837;28;20025;-80
2021/09/14 07:23:24;;;;;;;10.13;7.50;;;23.20;99.90;;;;;;5053503;28;20025;-80
2021/09/14 07:25:50;;;;;;;9.82;6.60;;;23.30;99.90;;;;;;5053156;28;20079;-80
2021/09/14 07:28:16;;;;;;;9.85;6.43;;;23.40;99.90;;;;;;5055042;28;20079;-80
2021/09/14 07:30:42;;;;;;;9.68;6.68;;;23.50;99.90;;;;;;5051850;28;20157;-80
2021/09/14 07:33:09;;;;;;;9.75;6.53;;;23.70;99.90;;;;;;5052284;28;20860;-80
2021/09/14 07:35:36;;;;;;;7.43;6.68;;;23.60;99.90;;;;;;5053095;28;20023;-80
2021/09/14 07:38:02;;;;;;;7.43;6.72;;;23.60;99.90;;;;;;5053112;28;20073;-80
2021/09/14 07:40:28;;;;;;;6.88;6.18;;;23.70;99.90;;;;;;5055241;28;20039;-79
2021/09/14 07:42:54;;;;;;;6.88;6.18;;;23.80;99.90;;;;;;5051984;28;20099;-81
2021/09/14 07:45:20;;;;;;;7.43;5.75;;;23.90;99.90;;;;;;5050614;28;20097;-80
2021/09/14 07:47:46;;;;;;;6.88;5.90;;;24.00;99.90;;;;;;5052426;28;20041;-79
2021/09/14 07:50:12;;;;;;;7.43;6.22;;;23.90;99.90;;;;;;5052056;28;20367;-80
2021/09/14 07:52:37;;;;;;;6.32;5.72;;;24.00;99.90;;;;;;5053415;28;20037;-80
2021/09/14 07:55:04;;;;;;;10.68;6.28;;;23.90;99.90;;;;;;5053034;28;20075;-80
2021/09/14 07:57:29;;;;;;;6.53;5.78;;;23.80;99.90;;;;;;5052101;28;20045;-80
2021/09/14 07:59:56;;;;;;;7.05;6.28;;;23.70;99.90;;;;;;5050392;28;20041;-80
2021/09/14 08:02:23;;;;;;;7.07;6.38;;;23.70;99.90;;;;;;5051630;28;20017;-80
2021/09/14 08:04:49;;;;;;;9.13;6.70;;;23.70;99.90;;;;;;5051881;28;20118;-79
2021/09/14 08:07:14;;;;;;;7.60;6.22;;;23.50;99.90;;;;;;5053925;28;20114;-80
2021/09/14 08:09:40;;;;;;;7.57;6.20;;;23.40;99.90;;;;;;5051624;28;20112;-80
2021/09/14 08:12:06;;;;;;;7.47;5.80;;;23.40;99.90;;;;;;5051586;28;20029;-79
2021/09/14 08:14:32;;;;;;;7.50;6.28;;;23.40;99.90;;;;;;5052002;28;20056;-79
2021/09/14 08:16:58;;;;;;;8.32;5.97;;;23.50;99.90;;;;;;5034829;28;20075;-79
2021/09/14 08:19:23;;;;;;;9.32;6.28;;;23.50;99.90;;;;;;5053837;28;20025;-80
2021/09/14 08:21:49;;;;;;;8.05;6.35;;;23.60;99.90;;;;;;5051541;28;20060;-80
2021/09/14 08:24:15;;;;;;;6.28;5.45;;;23.70;99.90;;;;;;5052226;28;20025;-79
2021/09/14 08:26:41;;;;;;;6.55;5.80;;;23.70;99.90;;;;;;5051185;28;20029;-80
2021/09/14 08:29:07;;;;;;;6.32;5.63;;;23.80;99.90;;;;;;5050963;28;20036;-80
2021/09/14 08:31:33;;;;;;;7.90;6.07;;;23.70;99.90;;;;;;5052818;28;20162;-79
2021/09/14 08:33:59;;;;;;;8.07;5.95;;;23.90;99.90;;;;;;5052359;28;20032;-79
2021/09/14 08:36:25;;;;;;;6.50;5.90;;;24.10;99.90;;;;;;5052227;28;20036;-79
2021/09/14 08:38:51;;;;;;;7.47;6.78;;;24.30;99.90;;;;;;5049783;28;20107;-80
2021/09/14 08:41:18;;;;;;;6.93;6.13;;;24.30;99.90;;;;;;5051133;28;20485;-79
2021/09/14 08:43:47;;;;;;;7.57;5.85;;;24.30;99.90;;;;;;5051575;28;20031;-80
2021/09/14 08:46:14;;;;;;;6.57;5.50;;;24.50;99.90;;;;;;5050963;28;20037;-80
2021/09/14 08:48:40;;;;;;;6.97;5.15;;;24.70;99.90;;;;;;5051095;28;20457;-80
2021/09/14 08:51:07;;;;;;;7.10;5.38;;;24.60;99.90;;;;;;5052281;28;20104;-80
2021/09/14 08:53:34;;;;;;;6.35;5.45;;;24.90;99.90;;;;;;5051754;28;20107;-80
2021/09/14 08:56:05;;;;;;;7.38;5.35;;;25.10;99.90;;;;;;5036181;28;20022;-80
2021/09/14 08:58:31;;;;;;;7.03;5.28;;;25.20;99.90;;;;;;5049574;28;20439;-80
2021/09/14 09:00:56;;;;;;;6.93;5.63;;;25.10;99.90;;;;;;5033118;28;20028;-80
2021/09/14 09:03:30;;;;;;;5.85;5.22;;;25.10;99.90;;;;;;5050972;28;20047;-80
2021/09/14 09:05:59;;;;;;;7.95;5.38;;;24.70;99.90;;;;;;5050810;28;20145;-80
2021/09/14 09:08:31;;;;;;;5.60;5.10;;;24.90;99.90;;;;;;5051576;28;20454;-80
2021/09/14 09:11:05;;;;;;;5.82;5.22;;;25.10;99.90;;;;;;5051432;28;20035;-79
2021/09/14 09:13:51;;;;;;;5.00;4.60;;;25.40;99.90;;;;;;5047733;28;20049;-79
2021/09/14 09:16:27;;;;;;;5.43;4.88;;;25.40;99.90;;;;;;5052775;28;20045;-80
2021/09/14 09:19:02;;;;;;;11.27;5.15;;;25.60;99.90;;;;;;5048913;28;20473;-80
2021/09/14 09:21:32;;;;;;;7.30;4.80;;;25.80;99.90;;;;;;5050768;28;20079;-79
2021/09/14 09:24:00;;;;;;;7.43;5.13;;;26.10;99.90;;;;;;5051016;28;20366;-80
2021/09/14 09:26:43;;;;;;;5.43;4.93;;;26.00;99.90;;;;;;5050645;28;20439;-79
2021/09/14 09:29:10;;;;;;;6.85;5.20;;;26.20;99.90;;;;;;5035687;28;20039;-80
2021/09/14 09:31:42;;;;;;;7.18;5.05;;;26.40;99.90;;;;;;5051653;28;20120;-80
2021/09/14 09:34:09;;;;;;;4.90;4.43;;;26.40;99.90;;;;;;5045209;28;20572;-79
2021/09/14 09:36:40;;;;;;;7.78;5.28;;;26.50;99.90;;;;;;5019933;28;20413;-80
2021/09/14 09:39:08;;;;;;;7.00;5.25;;;26.60;99.90;;;;;;5043010;28;20048;-81
2021/09/14 09:41:38;;;;;;;5.65;4.95;;;27.00;99.90;;;;;;5049522;28;20473;-80
2021/09/14 09:44:09;;;;;;;6.10;5.00;;;27.10;99.90;;;;;;5048928;28;20029;-80
2021/09/14 09:46:35;;;;;;;6.47;4.50;;;27.40;99.90;;;;;;5050959;28;20047;-79
2021/09/14 09:49:06;;;;;;;6.68;4.63;;;27.50;99.90;;;;;;5050396;28;20071;-77
2021/09/14 09:51:33;;;;;;;7.38;4.70;;;27.70;99.90;;;;;;5049305;28;20028;-80
2021/09/14 09:54:00;;;;;;;4.88;4.43;;;28.60;99.90;;;;;;5049104;28;20111;-80
2021/09/14 09:56:28;;;;;;;8.00;4.65;;;30.00;99.90;;;;;;5049118;28;20025;-80
2021/09/14 09:58:54;;;;;;;5.20;4.70;;;31.60;99.90;;;;;;5050253;28;20076;-81
2021/09/14 10:01:23;;;;;;;10.10;5.40;;;32.30;99.90;;;;;;5052512;28;20052;-80
2021/09/14 10:04:16;;;;;;;5.45;4.80;;;32.30;99.90;;;;;;5032025;28;20401;-80
2021/09/14 10:06:51;;;;;;;8.13;6.13;;;31.30;99.90;;;;;;5045301;28;20557;-81
2021/09/14 10:09:17;;;;;;;6.47;5.88;;;30.50;99.90;;;;;;5042538;28;20050;-78
2021/09/14 10:11:53;;;;;;;7.82;6.60;;;29.80;99.90;;;;;;5020027;28;20440;-80
2021/09/14 10:14:18;;;;;;;8.88;5.20;;;29.10;99.90;;;;;;5048853;28;20043;-78
2021/09/14 10:16:48;;;;;;;7.10;5.15;;;30.50;99.90;;;;;;5049574;28;20021;-80
2021/09/14 10:19:17;;;;;;;8.40;5.10;;;32.40;99.90;;;;;;5049676;28;20060;-84
2021/09/14 10:21:44;;;;;;;5.47;4.97;;;34.90;99.90;;;;;;5047315;28;20040;-80
2021/09/14 10:24:21;;;;;;;5.10;4.60;;;37.00;99.90;;;;;;5049262;28;20477;-84
2021/09/14 10:26:46;;;;;;;4.43;4.03;;;36.90;99.90;;;;;;5048372;28;20036;-83
2021/09/14 10:29:17;;;;;;;5.25;4.13;;;36.40;99.90;;;;;;5049299;28;20029;-84
2021/09/14 10:31:43;;;;;;;3.83;3.53;;;33.90;99.90;;;;;;5049327;28;20120;-83
2021/09/14 10:34:15;;;;;;;3.97;3.33;;;30.30;99.90;;;;;;5050381;28;20104;-82
2021/09/14 10:36:42;;;;;;;4.65;3.60;;;28.60;99.90;;;;;;5046781;28;20040;-82
2021/09/14 10:39:25;;;;;;;3.50;3.15;;;27.50;99.90;;;;;;5048543;28;20025;-81
2021/09/14 10:41:52;;;;;;;5.45;3.20;;;26.90;99.90;;;;;;5048155;28;20453;-81
2021/09/14 10:44:30;;;;;;;4.82;3.35;;;26.50;99.90;;;;;;5048672;28;20025;-82
2021/09/14 10:47:19;;;;;;;4.05;3.65;;;26.20;99.90;;;;;;5048297;28;20037;-82
2021/09/14 10:49:54;;;;;;;6.38;3.28;;;26.20;99.90;;;;;;5046806;28;20041;-82
2021/09/14 10:52:40;;;;;;;5.38;3.45;;;25.90;99.90;;;;;;5049276;28;20501;-82
2021/09/14 10:55:12;;;;;;;3.47;3.17;;;26.10;99.90;;;;;;5049179;28;20108;-82
2021/09/14 10:57:39;;;;;;;6.38;2.95;;;26.60;99.90;;;;;;5048898;28;20639;-82
2021/09/14 11:00:17;;;;;;;3.38;3.05;;;26.90;99.90;;;;;;5049686;28;20021;-81
2021/09/14 11:02:56;;;;;;;6.28;3.75;;;28.10;99.90;;;;;;5048853;28;20106;-83
2021/09/14 11:05:27;;;;;;;4.25;3.20;;;28.70;99.90;;;;;;5049314;28;20040;-82
2021/09/14 11:08:01;;;;;;;4.38;3.05;;;28.70;99.90;;;;;;5049136;28;20119;-82
2021/09/14 11:10:34;;;;;;;3.70;3.15;;;28.80;99.90;;;;;;5046086;28;20078;-82
2021/09/14 11:13:00;;;;;;;6.57;3.60;;;29.00;99.90;;;;;;5048596;28;20401;-82
2021/09/14 11:15:26;;;;;;;3.92;3.28;;;29.20;99.90;;;;;;5047141;28;20040;-82
2021/09/14 11:17:52;;;;;;;5.00;3.40;;;29.10;99.90;;;;;;5031603;28;20116;-82
2021/09/14 11:20:20;;;;;;;3.17;2.83;;;29.10;99.90;;;;;;5048879;28;20434;-83
2021/09/14 11:22:49;;;;;;;4.25;2.97;;;30.10;99.90;;;;;;5048789;28;20044;-83
2021/09/14 11:25:17;;;;;;;4.53;3.22;;;30.90;99.90;;;;;;5050633;28;20501;-83
2021/09/14 11:27:58;;;;;;;4.13;2.97;;;29.90;99.90;;;;;;5048675;28;20033;-82
2021/09/14 11:30:25;;;;;;;4.53;2.90;;;29.10;99.90;;;;;;5049237;28;20033;-82
2021/09/14 11:32:52;;;;;;;3.75;3.30;;;28.90;99.90;;;;;;5048090;28;20029;-83
2021/09/14 11:35:19;;;;;;;3.22;2.92;;;28.30;99.90;;;;;;5048469;28;20029;-83
2021/09/14 11:37:55;;;;;;;4.30;3.42;;;28.30;99.90;;;;;;5050795;28;20029;-82
2021/09/14 11:40:20;;;;;;;3.20;3.00;;;28.00;99.90;;;;;;5053431;28;20040;-82
2021/09/14 11:42:56;;;;;;;5.55;3.20;;;27.50;99.90;;;;;;5052440;28;20029;-82
2021/09/14 11:45:24;;;;;;;4.13;2.95;;;27.50;99.90;;;;;;5050448;28;20029;-83
2021/09/14 11:47:51;;;;;;;4.45;2.70;;;27.00;99.90;;;;;;5052251;28;20037;-82
2021/09/14 11:50:27;;;;;;;4.03;2.72;;;26.90;99.90;;;;;;5052041;28;20040;-82
2021/09/14 11:53:07;;;;;;;3.00;2.70;;;27.30;99.90;;;;;;5051240;28;20033;-82
2021/09/14 11:55:33;;;;;;;9.02;4.10;;;27.90;99.90;;;;;;5050590;28;20049;-82
2021/09/14 11:58:00;;;;;;;7.22;4.68;;;28.40;99.90;;;;;;5052504;28;20139;-82
2021/09/14 12:00:40;;;;;;;5.47;4.45;;;28.10;99.90;;;;;;5051930;28;20366;-82
2021/09/14 12:03:06;;;;;;;5.13;4.63;;;28.20;99.90;;;;;;5052445;28;20124;-82
2021/09/14 12:05:32;;;;;;;5.30;3.33;;;27.90;99.90;;;;;;5052118;28;20108;-82
2021/09/14 12:08:00;;;;;;;6.28;3.20;;;27.80;99.90;;;;;;5035683;28;20037;-82
2021/09/14 12:10:27;;;;;;;4.68;3.70;;;27.50;99.90;;;;;;5049493;28;20500;-82
2021/09/14 12:12:54;;;;;;;5.45;4.50;;;27.40;99.90;;;;;;5051794;28;20025;-82
2021/09/14 12:15:29;;;;;;;6.00;4.15;;;27.70;99.90;;;;;;5051526;28;20057;-83
2021/09/14 12:18:04;;;;;;;5.88;5.25;;;27.30;99.90;;;;;;5051678;28;20029;-82
2021/09/14 12:20:30;;;;;;;5.10;4.38;;;27.40;99.90;;;;;;5052289;28;20092;-82
2021/09/14 12:22:55;;;;;;;6.18;5.10;;;27.10;99.90;;;;;;5051572;28;20032;-82
2021/09/14 12:25:21;;;;;;;4.53;3.88;;;27.60;99.90;;;;;;5053383;28;20021;-82
2021/09/14 12:27:46;;;;;;;4.40;3.60;;;27.20;99.90;;;;;;5051237;28;20037;-82
2021/09/14 12:30:12;;;;;;;3.20;3.00;;;27.50;99.90;;;;;;5051179;28;20035;-82
2021/09/14 12:32:38;;;;;;;5.18;4.05;;;27.90;99.90;;;;;;5042553;28;20056;-82
2021/09/14 12:35:04;;;;;;;3.95;3.38;;;27.80;99.90;;;;;;5034950;28;20032;-82
2021/09/14 12:37:30;;;;;;;7.03;3.70;;;28.00;99.90;;;;;;5052535;28;20033;-82
2021/09/14 12:39:56;;;;;;;7.78;3.60;;;28.10;99.90;;;;;;5050830;28;20397;-82
2021/09/14 12:42:21;;;;;;;4.95;3.10;;;28.00;99.90;;;;;;5050640;28;20766;-83
2021/09/14 12:44:47;;;;;;;8.70;3.53;;;28.40;99.90;;;;;;5050555;28;20480;-82
2021/09/14 12:47:12;;;;;;;6.30;3.47;;;28.50;99.90;;;;;;5050523;28;20512;-82
2021/09/14 12:49:38;;;;;;;4.85;4.03;;;28.40;99.90;;;;;;5051060;28;20032;-82
2021/09/14 12:52:04;;;;;;;5.38;3.63;;;28.20;99.90;;;;;;5051280;28;20037;-82
2021/09/14 12:54:30;;;;;;;5.32;3.40;;;27.30;99.90;;;;;;5049740;28;20539;-82
2021/09/14 12:56:56;;;;;;;3.42;3.05;;;27.50;99.90;;;;;;5050054;28;20033;-82
2021/09/14 12:59:22;;;;;;;4.68;3.50;;;27.20;99.90;;;;;;5050482;28;20491;-83
2021/09/14 13:01:48;;;;;;;6.47;4.72;;;27.40;99.90;;;;;;5050063;28;20033;-82
2021/09/14 13:04:13;;;;;;;4.35;3.40;;;28.40;99.90;;;;;;5051965;28;20021;-82
2021/09/14 13:06:39;;;;;;;3.40;3.10;;;28.60;99.90;;;;;;5049293;28;20113;-82
2021/09/14 13:09:05;;;;;;;6.40;3.22;;;28.70;99.90;;;;;;5050272;28;20131;-82
2021/09/14 13:11:31;;;;;;;5.32;3.30;;;29.20;99.90;;;;;;5048521;28;20495;-82
2021/09/14 13:16:40;;;;;;;4.50;4.10;;;29.40;99.90;;;;;;5048354;28;20031;-82
2021/09/14 13:19:06;;;;;;;5.68;4.07;;;29.60;99.90;;;;;;5051097;28;20388;-82
2021/09/14 13:21:32;;;;;;;4.07;2.90;;;29.20;99.90;;;;;;5049315;28;20040;-82
2021/09/14 13:23:58;;;;;;;4.22;3.00;;;28.50;99.90;;;;;;5048945;28;20025;-82
2021/09/14 13:26:24;;;;;;;3.60;2.95;;;28.60;99.90;;;;;;5049804;28;20031;-83
2021/09/14 13:28:51;;;;;;;4.93;4.07;;;28.70;99.90;;;;;;5050133;28;20565;-83
2021/09/14 13:31:17;;;;;;;5.03;4.53;;;28.80;99.90;;;;;;5051968;28;20108;-83
2021/09/14 13:33:44;;;;;;;4.30;3.75;;;29.40;99.90;;;;;;5049244;28;20037;-82
2021/09/14 13:36:10;;;;;;;3.85;3.20;;;29.50;99.90;;;;;;5048674;28;20029;-82
2021/09/14 13:38:36;;;;;;;5.20;3.67;;;28.80;99.90;;;;;;5049291;28;20056;-83
2021/09/14 13:41:05;;;;;;;5.85;3.20;;;29.10;99.90;;;;;;5049646;28;20057;-82
2021/09/14 13:46:10;;;;;;;5.88;3.42;;;28.70;99.90;;;;;;5050335;28;20057;-83
2021/09/14 13:48:38;;;;;;;4.47;3.88;;;28.80;99.90;;;;;;5049911;28;20045;-82
2021/09/14 13:51:04;;;;;;;5.50;3.50;;;28.90;99.90;;;;;;5047045;28;20036;-83
2021/09/14 13:53:30;;;;;;;4.40;3.00;;;30.60;99.90;;;;;;5049317;28;20027;-83